Aeroporto :
LOGIN :

Iscrizione | Disclaimer

   EN    FR    IT 

 










Sommario :    VFR   VFR Marginale   IFR   IFR Intensivo   IFR Molto Intensivo
Visibilità : 
Base nubi : 
>= 8 km
>= 3000ft
5 / 8 km
1000 / 3000 ft
1500m / 5 km
500 / 1000 ft
800 / 1500m
200 / 500 ft
< 800m
< 200 ft
Simboli :   Temporali  Nebbia  Neve Forte  Precipitazioni Forti  Vento > 20 kt
SIGMETs :   Varie  Temporali  Ghiacco  Turbolenza  Onda orograficha  Ceneri Vulcaniche







- Altitudine del aeroporto : 405 ft
- Codice IATA : JMK


LGMK - Mikonos

ULTIMO METAR :
  • 200620Z 36013KT 9999 SCT025 13/09 Q1021

METARs OBSOLETI :
  • 200550Z 36012KT 9999 SCT025 13/09 Q1021
  • 200520Z 36013KT 9999 SCT025 12/08 Q1021
  • 200450Z 36014KT 9999 SCT025 12/08 Q1021
  • 200420Z 35010KT 9999 SCT020 13/06 Q1021
  • 200350Z 34008KT 9999 SCT020 13/06 Q1021

TAF TAF LGMK
Valido dal 20 a 06 ore il 20 a 15 ore UTC


200500Z 2006/2015 36020KT 9999 SCT020
PROB30
TEMPO 2006/2010 5000 RA
Nessun NOTAM noto per questo aeroporto.



MetMap, La meteo Aeronautica in un colpo d'occhio ! - Copyright ORBIFLY Dicembre 2007 - Disclaimer

ORBIFLY MET'MAP TEAM :

Programmazione e sviluppo : Alexandra Zaïnal
Concezione e sviluppo : Baudouin d'Aumeries
Co-Programmazione e sviluppo : Marc-Olivier Méhu
Supporto tecnico e logistico : Manuel Goepfert
Aiuto per la traduzione : Arnaldo La Scala

Contatto : metmap@orbifly.com




FONTI E CREDITI :

   NOAA